createdAt,value
2022-11-15T08:35:01.485Z,4.90
2022-11-15T08:40:03.896Z,4.90
2022-11-15T08:45:06.462Z,4.91
2022-11-15T08:50:08.533Z,4.93
2022-11-15T08:55:10.651Z,4.94
2022-11-15T09:00:14.652Z,4.98
2022-11-15T09:05:20.059Z,4.98
2022-11-15T09:10:23.292Z,5.00
2022-11-15T09:15:25.362Z,5.01
2022-11-15T09:20:27.392Z,5.05
2022-11-15T09:25:30.533Z,5.04
2022-11-15T09:30:32.596Z,5.06
2022-11-15T09:35:34.812Z,5.08
2022-11-15T09:40:39.301Z,5.11
2022-11-15T09:45:55.552Z,5.13
2022-11-15T09:51:00.280Z,5.15
2022-11-15T09:56:06.747Z,5.17
2022-11-15T10:01:18.527Z,5.18
2022-11-15T10:06:25.910Z,5.21
2022-11-15T10:11:38.608Z,5.23
2022-11-15T10:17:07.386Z,5.25
2022-11-15T10:22:12.126Z,5.27
2022-11-15T10:27:17.254Z,5.29
2022-11-15T10:32:21.665Z,5.30
2022-11-15T10:37:31.983Z,5.32
2022-11-15T10:42:34.013Z,5.34
2022-11-15T10:47:39.453Z,5.37
2022-11-15T10:52:47.181Z,5.39
2022-11-15T10:57:56.750Z,5.42
2022-11-15T11:03:10.859Z,5.43
2022-11-15T11:08:15.408Z,5.46
2022-11-15T11:13:39.352Z,5.47
2022-11-15T11:18:57.710Z,5.50
2022-11-15T11:24:09.652Z,5.51
2022-11-15T11:29:36.219Z,5.54
2022-11-15T11:34:57.005Z,5.55
2022-11-15T11:40:17.650Z,5.58
2022-11-15T11:45:54.112Z,5.59
2022-11-15T11:51:03.302Z,5.60
2022-11-15T11:56:34.546Z,5.63
2022-11-15T12:01:43.054Z,5.65
2022-11-15T12:06:51.935Z,5.67
2022-11-15T12:12:07.496Z,5.68
2022-11-15T12:17:13.731Z,5.69
2022-11-15T12:22:33.987Z,5.71
2022-11-15T12:27:46.019Z,5.71
2022-11-15T12:33:02.712Z,5.73
2022-11-15T12:38:05.590Z,5.75
2022-11-15T12:43:16.854Z,5.76
2022-11-15T12:48:18.875Z,5.75
2022-11-15T12:53:26.764Z,5.77
2022-11-15T12:58:42.216Z,5.76
2022-11-15T13:04:23.317Z,5.80
2022-11-15T13:09:31.363Z,5.80
2022-11-15T13:14:40.668Z,5.81
2022-11-15T13:19:42.734Z,5.80
2022-11-15T13:24:44.831Z,5.80
2022-11-15T13:29:46.912Z,5.82
2022-11-15T13:34:54.005Z,5.82
2022-11-15T13:39:56.168Z,5.81
2022-11-15T13:45:03.402Z,5.82
2022-11-15T13:50:12.070Z,5.82
2022-11-15T13:55:20.112Z,5.82
2022-11-15T14:00:41.502Z,5.82
2022-11-15T14:05:44.133Z,5.82
2022-11-15T14:10:46.266Z,5.81
2022-11-15T14:15:48.272Z,5.79
2022-11-15T14:20:50.329Z,5.80
2022-11-15T14:25:59.995Z,5.79
2022-11-15T14:31:02.423Z,5.77
2022-11-15T14:36:22.484Z,5.77
2022-11-15T14:41:27.687Z,5.76
2022-11-15T14:46:29.731Z,5.75
2022-11-15T14:51:34.195Z,5.74
2022-11-15T14:56:36.256Z,5.73
2022-11-15T15:01:38.311Z,5.71
2022-11-15T15:06:40.465Z,5.70
2022-11-15T15:11:42.553Z,5.69
2022-11-15T15:16:44.687Z,5.68
2022-11-15T15:21:46.706Z,5.67
2022-11-15T15:26:48.740Z,5.66
2022-11-15T15:31:50.912Z,5.65
